Time;durP1;ratioP1;P1;durP2;ratioP2;P2;SDS_P1;SDS_P2;PMS_P1;PMS_P2;Temp;Humidity;BMP_temperature;BMP_pressure;BME280_temperature;BME280_humidity;BME280_pressure;Samples;Min_cycle;Max_cycle;Signal;HPM_P1;HPM_P2
2024/01/16 00:00:47;;;;;;;1.80;0.68;;;;;;;-0.12;91.67;148637.88;10630398;27;20465;-75
2024/01/16 00:05:49;;;;;;;1.33;0.50;;;;;;;0.02;88.61;148672.44;10628634;27;20500;-74
2024/01/16 00:10:51;;;;;;;1.38;0.63;;;;;;;0.01;87.06;148671.19;10628563;27;20040;-75
2024/01/16 00:15:52;;;;;;;1.95;0.50;;;;;;;-0.03;88.70;148662.19;10629886;27;20619;-74
2024/01/16 00:20:55;;;;;;;1.63;0.63;;;;;;;0.06;88.70;148682.69;10629320;27;20125;-75
2024/01/16 00:25:57;;;;;;;1.90;0.77;;;;;;;-0.03;92.98;148662.19;10629902;27;20538;-75
2024/01/16 00:30:58;;;;;;;1.65;0.60;;;;;;;-0.21;100.00;148616.13;10628821;27;20069;-75
2024/01/16 00:36:00;;;;;;;1.00;0.55;;;;;;;-0.45;100.00;148555.94;10628433;27;20051;-75
2024/01/16 00:41:02;;;;;;;1.13;0.80;;;;;;;-0.48;100.00;148547.03;10629906;27;20113;-76
2024/01/16 00:46:04;;;;;;;1.38;0.70;;;;;;;-0.41;100.00;148566.19;10633236;27;20050;-74
2024/01/16 00:51:07;;;;;;;1.08;0.88;;;;;;;-0.46;100.00;148553.41;10630125;27;20510;-77
2024/01/16 00:56:09;;;;;;;2.42;1.00;;;;;;;-0.51;100.00;148540.63;10629352;27;20502;-75
2024/01/16 01:01:11;;;;;;;2.22;1.10;;;;;;;-0.42;100.00;148563.63;10630452;27;20031;-76
2024/01/16 01:06:12;;;;;;;2.75;0.80;;;;;;;-0.48;100.00;148547.03;10629273;27;20047;-75
2024/01/16 01:11:14;;;;;;;2.70;1.00;;;;;;;-0.37;100.00;148575.16;10627666;27;20080;-75
2024/01/16 01:16:16;;;;;;;1.38;0.90;;;;;;;-0.34;100.00;148584.13;10628535;27;20036;-76
2024/01/16 01:21:18;;;;;;;2.20;0.93;;;;;;;-0.34;100.00;148582.84;10628323;27;20452;-76
2024/01/16 01:26:20;;;;;;;2.65;1.10;;;;;;;-0.45;100.00;148554.69;10627623;27;20047;-75
2024/01/16 01:31:22;;;;;;;1.90;1.20;;;;;;;-0.65;100.00;148504.78;10627273;27;20039;-76
2024/01/16 01:36:24;;;;;;;2.38;1.10;;;;;;;-0.68;100.00;148498.38;10628617;27;20057;-75
2024/01/16 01:41:26;;;;;;;2.35;0.93;;;;;;;-0.73;100.00;148485.59;10626401;27;20058;-74
2024/01/16 01:46:29;;;;;;;1.30;1.10;;;;;;;-0.83;100.00;148461.28;10627482;27;20058;-74
2024/01/16 01:51:31;;;;;;;1.40;1.25;;;;;;;-0.62;100.00;148513.75;10626904;28;20066;-75
2024/01/16 01:56:33;;;;;;;1.40;1.02;;;;;;;-0.52;100.00;148538.06;10627525;27;20517;-75
2024/01/16 02:01:35;;;;;;;1.00;0.93;;;;;;;-0.48;100.00;148548.31;10626563;28;20046;-75
2024/01/16 02:06:37;;;;;;;0.80;0.70;;;;;;;-0.36;100.00;148578.97;10626375;27;20039;-76
2024/01/16 02:11:39;;;;;;;3.15;1.33;;;;;;;-0.31;98.18;148590.50;10627005;27;20071;-75
2024/01/16 02:16:44;;;;;;;1.73;0.82;;;;;;;-0.25;98.25;148605.88;10607883;28;20055;-74
2024/01/16 02:21:49;;;;;;;1.20;1.10;;;;;;;-0.43;100.00;148561.09;10625627;27;20056;-75
2024/01/16 02:26:53;;;;;;;2.30;1.20;;;;;;;-0.38;100.00;148573.88;10626145;28;20122;-75
2024/01/16 02:31:55;;;;;;;1.73;0.80;;;;;;;-0.34;100.00;148582.84;10627728;27;20039;-75
2024/01/16 02:36:57;;;;;;;1.25;0.85;;;;;;;-0.36;100.00;148578.97;10633100;27;20126;-75
2024/01/16 02:41:58;;;;;;;0.75;0.70;;;;;;;-0.52;100.00;148538.06;10633780;27;20049;-75
2024/01/16 02:47:00;;;;;;;3.35;1.08;;;;;;;-0.49;100.00;148545.72;10633845;27;20467;-74
2024/01/16 02:52:03;;;;;;;3.33;1.27;;;;;;;-0.45;100.00;148555.94;10633241;27;20106;-75
2024/01/16 02:57:05;;;;;;;2.40;1.00;;;;;;;-0.53;100.00;148536.78;10633222;27;20074;-75
2024/01/16 03:02:08;;;;;;;3.10;1.40;;;;;;;-0.40;100.00;148567.47;10633786;27;20384;-76
2024/01/16 03:07:10;;;;;;;1.20;0.82;;;;;;;-0.45;100.00;148555.94;10632251;27;20047;-74
2024/01/16 03:12:12;;;;;;;0.90;0.85;;;;;;;-0.24;100.00;148607.16;10632495;27;20043;-75
2024/01/16 03:17:13;;;;;;;2.08;0.80;;;;;;;-0.21;97.46;148616.13;10630940;27;20047;-75
2024/01/16 03:22:15;;;;;;;2.88;0.82;;;;;;;-0.01;93.45;148666.03;10632571;27;20138;-74
2024/01/16 03:27:17;;;;;;;0.88;0.80;;;;;;;0.04;93.33;148678.81;10631686;27;20092;-75
2024/01/16 03:32:19;;;;;;;1.25;0.77;;;;;;;0.13;92.47;148701.84;10631157;27;20061;-74
2024/01/16 03:37:21;;;;;;;1.10;0.73;;;;;;;0.05;93.10;148680.13;10631884;27;20039;-74
2024/01/16 03:42:23;;;;;;;2.25;0.80;;;;;;;0.06;99.73;148683.97;10630760;27;20074;-74
2024/01/16 03:47:25;;;;;;;1.02;1.00;;;;;;;-0.24;100.00;148607.16;10631156;27;20118;-76
2024/01/16 03:52:27;;;;;;;0.85;0.80;;;;;;;-0.32;100.00;148589.22;10631154;27;20047;-76
2024/01/16 03:57:29;;;;;;;2.83;0.93;;;;;;;-0.38;100.00;148572.59;10631980;27;20081;-74
2024/01/16 04:02:31;;;;;;;2.10;0.80;;;;;;;-0.42;100.00;148562.38;10630182;27;20039;-75
2024/01/16 04:07:34;;;;;;;1.60;0.95;;;;;;;-0.44;100.00;148557.22;10628913;27;20046;-75
2024/01/16 04:12:35;;;;;;;1.85;1.02;;;;;;;-0.38;100.00;148573.88;10630929;27;20058;-74
2024/01/16 04:17:37;;;;;;;0.95;0.80;;;;;;;-0.44;100.00;148558.53;10629909;27;20102;-74
2024/01/16 04:22:39;;;;;;;2.53;1.00;;;;;;;-0.42;100.00;148563.63;10628712;27;20510;-73
2024/01/16 04:27:41;;;;;;;2.08;0.82;;;;;;;-0.35;100.00;148580.31;10629836;27;20046;-75
2024/01/16 04:32:43;;;;;;;2.20;0.75;;;;;;;-0.12;98.67;148639.16;10628650;27;20062;-74
2024/01/16 04:37:45;;;;;;;0.93;0.82;;;;;;;-0.15;98.54;148630.19;10628696;27;20057;-75
2024/01/16 04:42:48;;;;;;;1.00;0.82;;;;;;;-0.01;95.17;148666.03;10627724;27;20071;-74
2024/01/16 04:47:49;;;;;;;2.42;1.30;;;;;;;0.04;93.77;148678.81;10627170;27;20082;-74
2024/01/16 04:52:54;;;;;;;1.25;0.90;;;;;;;0.17;91.25;148712.09;10628510;27;20043;-75
2024/01/16 04:57:56;;;;;;;1.27;0.80;;;;;;;0.05;92.37;148681.41;10626849;27;20077;-74
2024/01/16 05:02:58;;;;;;;1.25;0.80;;;;;;;0.17;91.23;148712.09;10627193;27;20039;-74
2024/01/16 05:08:03;;;;;;;2.42;1.02;;;;;;;0.05;92.70;148680.13;10628810;27;20077;-74
2024/01/16 05:13:05;;;;;;;3.45;1.10;;;;;;;0.08;91.63;148689.06;10626642;27;20051;-74
2024/01/16 05:18:06;;;;;;;1.05;0.70;;;;;;;0.10;89.68;148692.94;10625719;27;20053;-73
2024/01/16 05:23:08;;;;;;;1.88;0.75;;;;;;;0.21;87.83;148721.06;10627245;27;20035;-76
2024/01/16 05:28:10;;;;;;;1.70;0.65;;;;;;;0.10;86.21;148692.94;10626539;27;20113;-74
2024/01/16 05:33:12;;;;;;;2.90;0.52;;;;;;;0.35;83.96;148755.66;10626450;27;20483;-74
2024/01/16 05:38:14;;;;;;;0.57;0.57;;;;;;;0.20;85.42;148718.53;10625065;28;20517;-75
2024/01/16 05:43:17;;;;;;;2.30;0.80;;;;;;;0.18;84.55;148713.44;10625841;28;20039;-74
2024/01/16 05:48:19;;;;;;;1.23;1.00;;;;;;;0.17;84.59;148712.09;10625958;27;20119;-74
2024/01/16 05:53:21;;;;;;;0.60;0.60;;;;;;;0.26;84.50;148733.88;10624699;28;20081;-74
2024/01/16 05:58:22;;;;;;;0.75;0.73;;;;;;;0.06;86.88;148683.97;10626786;27;20533;-75
2024/01/16 06:03:24;;;;;;;6.95;1.35;;;;;;;0.12;87.22;148698.03;10626024;27;20448;-74
2024/01/16 06:08:26;;;;;;;1.38;0.88;;;;;;;-0.08;90.94;148649.41;10629351;27;20081;-75
2024/01/16 06:13:30;;;;;;;1.85;1.08;;;;;;;-0.30;100.00;148594.38;10634596;27;20035;-74
2024/01/16 06:18:31;;;;;;;2.05;1.35;;;;;;;-0.48;100.00;148548.31;10633791;27;20051;-74
2024/01/16 06:23:33;;;;;;;2.42;1.15;;;;;;;-0.53;100.00;148536.78;10633735;27;20039;-74
2024/01/16 06:28:36;;;;;;;1.33;1.17;;;;;;;-0.42;100.00;148562.38;10634236;27;20138;-75
2024/01/16 06:33:37;;;;;;;1.17;1.02;;;;;;;-0.42;97.60;148563.63;10632468;27;20122;-74
2024/01/16 06:38:40;;;;;;;1.50;1.10;;;;;;;-0.38;96.88;148573.88;10631534;27;20186;-74
2024/01/16 06:43:42;;;;;;;0.85;0.73;;;;;;;-0.30;95.23;148594.38;10632739;27;20043;-74
2024/01/16 06:48:44;;;;;;;2.63;0.88;;;;;;;-0.28;95.66;148599.47;10628726;27;20043;-74
2024/01/16 06:53:46;;;;;;;1.17;1.00;;;;;;;-0.31;97.40;148591.81;10634569;27;20542;-75
2024/01/16 06:58:48;;;;;;;1.55;1.20;;;;;;;-0.41;97.21;148564.91;10634101;27;20047;-74
2024/01/16 07:03:50;;;;;;;5.32;1.00;;;;;;;-0.33;93.74;148585.41;10630051;27;20076;-74
2024/01/16 07:08:51;;;;;;;3.05;1.00;;;;;;;-0.29;90.78;148595.66;10632147;27;20043;-73
2024/01/16 07:13:53;;;;;;;3.50;1.05;;;;;;;-0.32;90.50;148587.94;10632391;27;20092;-74
2024/01/16 07:18:55;;;;;;;1.40;1.13;;;;;;;-0.20;88.75;148618.69;10632534;27;20051;-74
2024/01/16 07:23:57;;;;;;;1.20;0.95;;;;;;;-0.23;87.64;148610.97;10632048;27;20034;-74
2024/01/16 07:28:59;;;;;;;2.15;0.98;;;;;;;-0.16;86.48;148627.66;10624504;27;20096;-75
2024/01/16 07:34:01;;;;;;;1.23;1.10;;;;;;;-0.14;85.33;148634.03;10589135;28;20036;-74
2024/01/16 07:39:03;;;;;;;1.27;0.90;;;;;;;-0.15;83.87;148630.19;10589689;28;20066;-74
2024/01/16 07:44:06;;;;;;;2.05;1.00;;;;;;;-0.07;83.50;148650.69;10589570;28;20055;-74
2024/01/16 07:49:07;;;;;;;2.72;0.88;;;;;;;0.08;81.05;148689.06;10589308;28;20074;-75
2024/01/16 07:54:10;;;;;;;1.40;0.80;;;;;;;-0.08;82.48;148649.41;10597981;27;20043;-75
2024/01/16 07:59:12;;;;;;;1.80;0.73;;;;;;;-0.01;81.86;148666.03;10630039;27;20039;-75
2024/01/16 08:04:14;;;;;;;2.35;1.17;;;;;;;0.01;81.59;148671.19;10629683;27;20043;-74
2024/01/16 08:09:16;;;;;;;5.97;3.88;;;;;;;0.06;81.16;148683.97;10629711;27;20460;-74
2024/01/16 08:14:18;;;;;;;3.35;1.38;;;;;;;0.08;81.80;148687.78;10631739;27;20046;-74
2024/01/16 08:19:20;;;;;;;3.00;1.77;;;;;;;0.04;80.86;148678.81;10632121;27;20075;-74
2024/01/16 08:24:22;;;;;;;3.30;1.25;;;;;;;0.04;81.75;148678.81;10628536;27;20138;-75
2024/01/16 08:29:24;;;;;;;3.17;1.50;;;;;;;-0.05;81.94;148657.06;10628441;27;20406;-75
2024/01/16 08:34:26;;;;;;;3.55;1.33;;;;;;;-0.05;83.10;148657.06;10629223;27;20043;-75
2024/01/16 08:39:33;;;;;;;2.63;1.00;;;;;;;0.00;81.61;148668.63;10629714;27;20130;-74
2024/01/16 08:44:34;;;;;;;3.85;1.45;;;;;;;0.19;80.66;148717.25;10629657;27;20047;-74
2024/01/16 08:49:38;;;;;;;2.28;1.00;;;;;;;0.13;81.17;148700.59;10630129;27;20444;-74
2024/01/16 08:54:40;;;;;;;2.00;1.35;;;;;;;0.31;80.46;148746.72;10629502;27;20043;-73
2024/01/16 08:59:42;;;;;;;5.28;1.33;;;;;;;0.12;80.67;148698.03;10626743;27;20142;-73
2024/01/16 09:04:45;;;;;;;3.28;1.25;;;;;;;0.19;80.39;148717.25;10629020;27;20043;-75
2024/01/16 09:09:47;;;;;;;3.22;1.30;;;;;;;0.12;80.23;148698.03;10628607;27;20055;-74
2024/01/16 09:14:48;;;;;;;3.88;1.77;;;;;;;0.16;79.97;148708.28;10628327;27;20039;-74
2024/01/16 09:19:51;;;;;;;2.78;1.08;;;;;;;0.32;79.76;148749.28;10626573;27;20138;-74
2024/01/16 09:24:53;;;;;;;3.17;1.23;;;;;;;0.41;79.46;148772.31;10626992;27;20123;-73
2024/01/16 09:29:54;;;;;;;1.33;0.82;;;;;;;0.38;77.90;148764.63;10625570;28;20099;-73
2024/01/16 09:34:58;;;;;;;1.77;1.13;;;;;;;0.44;78.97;148778.69;10627664;28;20092;-73
2024/01/16 09:40:00;;;;;;;5.28;1.05;;;;;;;0.31;79.58;148745.41;10624865;27;20465;-73
2024/01/16 09:45:05;;;;;;;1.52;1.10;;;;;;;0.36;79.09;148758.25;10634249;27;20101;-74
2024/01/16 09:50:07;;;;;;;1.50;1.10;;;;;;;0.41;77.86;148772.31;10634664;27;20043;-73
2024/01/16 09:55:09;;;;;;;2.88;1.15;;;;;;;0.55;78.03;148805.63;10632233;27;20572;-74
2024/01/16 10:00:12;;;;;;;3.15;1.30;;;;;;;0.76;76.50;148859.41;10635179;27;20506;-73
2024/01/16 10:05:14;;;;;;;1.90;0.93;;;;;;;0.71;76.19;148847.91;10668273;27;20043;-74
2024/01/16 10:10:16;;;;;;;3.05;1.17;;;;;;;0.78;76.85;148863.25;10668696;27;20273;-75
2024/01/16 10:15:27;;;;;;;1.50;1.40;;;;;;;0.72;75.76;148850.44;10633382;27;20050;-73
2024/01/16 10:20:34;;;;;;;3.55;1.23;;;;;;;0.73;75.91;148851.72;10632863;27;20463;-74
2024/01/16 10:25:37;;;;;;;1.80;1.05;;;;;;;0.94;73.51;148905.53;10631547;27;20039;-74
2024/01/16 10:30:39;;;;;;;1.73;1.00;;;;;;;0.73;74.71;148851.72;10631486;27;20498;-74
2024/01/16 10:35:41;;;;;;;5.88;1.48;;;;;;;0.80;74.02;148868.34;10632661;27;20107;-75
2024/01/16 10:40:43;;;;;;;1.75;1.27;;;;;;;0.80;73.59;148868.34;10629900;27;20498;-75
2024/01/16 10:45:44;;;;;;;1.88;1.20;;;;;;;0.78;73.84;148864.53;10660749;27;20043;-75
2024/01/16 10:50:51;;;;;;;2.75;1.20;;;;;;;0.94;74.13;148904.25;10672375;27;20043;-75
2024/01/16 10:55:54;;;;;;;3.80;1.10;;;;;;;0.94;72.28;148904.25;10674762;27;20125;-74
2024/01/16 11:01:01;;;;;;;1.73;0.82;;;;;;;0.97;71.97;148911.91;10670221;27;20129;-75
2024/01/16 11:06:05;;;;;;;2.72;1.30;;;;;;;1.17;71.81;148961.91;10632506;27;20039;-75
2024/01/16 11:11:08;;;;;;;1.55;1.40;;;;;;;1.16;70.87;148959.34;10632963;27;20039;-74
2024/01/16 11:16:11;;;;;;;4.13;1.10;;;;;;;1.27;70.34;148988.81;10631967;27;20498;-76
2024/01/16 11:21:15;;;;;;;2.13;1.20;;;;;;;1.40;70.41;149019.56;10629834;27;20092;-75
2024/01/16 11:26:33;;;;;;;2.00;1.00;;;;;;;1.73;68.60;149104.19;10631597;27;20122;-74
2024/01/16 11:31:36;;;;;;;6.53;1.27;;;;;;;1.59;70.10;149066.97;10631640;27;20039;-74
2024/01/16 11:36:53;;;;;;;2.42;1.10;;;;;;;1.91;66.99;149147.78;10632506;27;20075;-74
2024/01/16 11:41:59;;;;;;;1.60;0.90;;;;;;;2.16;66.27;149210.59;10631887;27;20479;-74
2024/01/16 11:47:02;;;;;;;4.97;1.73;;;;;;;2.11;66.61;149197.78;10632045;27;20058;-74
2024/01/16 11:52:05;;;;;;;2.00;1.20;;;;;;;1.99;66.75;149169.59;10630550;27;20067;-74
2024/01/16 11:57:37;;;;;;;3.08;1.67;;;;;;;2.00;66.26;149170.88;10630633;27;20038;-75
2024/01/16 12:02:53;;;;;;;3.75;1.27;;;;;;;1.64;68.54;149081.13;10631168;27;20451;-75
2024/01/16 12:07:55;;;;;;;1.87;0.97;;;;;;;1.34;68.93;149005.47;10631009;27;20080;-76
2024/01/16 12:13:00;;;;;;;3.03;1.00;;;;;;;1.36;69.08;149010.59;10630986;27;20043;-74
2024/01/16 12:18:06;;;;;;;2.95;1.73;;;;;;;1.44;69.47;149029.81;10646426;27;20089;-74
2024/01/16 12:23:21;;;;;;;2.30;1.10;;;;;;;1.55;67.94;149058.03;10630388;27;20035;-74
2024/01/16 12:28:24;;;;;;;3.63;2.42;;;;;;;1.34;68.25;149005.47;10646223;27;20041;-75
2024/01/16 12:33:34;;;;;;;4.60;1.40;;;;;;;1.33;68.32;149001.59;10629851;27;20078;-75
2024/01/16 12:38:36;;;;;;;3.28;2.03;;;;;;;1.16;69.41;148960.63;10629610;27;20043;-75
2024/01/16 12:43:38;;;;;;;3.45;2.10;;;;;;;1.03;71.00;148927.31;10626272;27;20039;-75
2024/01/16 12:48:40;;;;;;;2.15;1.60;;;;;;;0.99;70.46;148917.06;10628747;27;20135;-75
2024/01/16 12:54:14;;;;;;;3.05;1.45;;;;;;;1.04;69.60;148928.59;10627452;27;20043;-75
2024/01/16 12:59:16;;;;;;;5.55;3.47;;;;;;;1.10;68.67;148943.94;10629440;27;20042;-75
2024/01/16 13:04:18;;;;;;;1.90;1.50;;;;;;;0.93;70.27;148902.97;10627444;27;20085;-75
2024/01/16 13:09:22;;;;;;;1.45;0.90;;;;;;;0.79;71.01;148867.06;10629550;27;20550;-75
2024/01/16 13:14:24;;;;;;;3.03;1.67;;;;;;;0.91;69.94;148897.84;10628872;27;20080;-74
2024/01/16 13:19:29;;;;;;;2.25;1.08;;;;;;;0.98;71.35;148915.78;10627035;27;20104;-74
2024/01/16 13:24:31;;;;;;;4.25;2.03;;;;;;;1.09;69.55;148941.41;10628923;27;20039;-74
2024/01/16 13:29:37;;;;;;;1.95;1.20;;;;;;;1.19;69.48;148967.00;10628387;27;20448;-75
2024/01/16 13:34:42;;;;;;;4.68;1.10;;;;;;;1.27;69.25;148987.53;10629144;27;20043;-75
2024/01/16 13:39:44;;;;;;;1.38;0.80;;;;;;;1.30;70.27;148995.22;10629207;27;20444;-74
2024/01/16 13:44:46;;;;;;;1.92;1.20;;;;;;;1.39;69.19;149018.28;10627635;28;20047;-75
2024/01/16 13:49:48;;;;;;;2.17;1.40;;;;;;;1.24;70.98;148979.88;10628576;27;20046;-75
2024/01/16 13:54:51;;;;;;;1.98;1.63;;;;;;;1.44;68.84;149029.81;10629350;28;20039;-76
2024/01/16 13:59:53;;;;;;;2.05;1.40;;;;;;;1.29;70.96;148992.66;10627696;27;20061;-75
2024/01/16 14:04:55;;;;;;;1.10;0.80;;;;;;;1.36;69.41;149010.59;10612077;28;20039;-75
2024/01/16 14:09:57;;;;;;;2.50;1.27;;;;;;;1.42;69.80;149026.00;10628553;27;20462;-75
2024/01/16 14:15:00;;;;;;;2.88;1.10;;;;;;;1.21;69.80;148972.16;10626451;28;20126;-74
2024/01/16 14:20:05;;;;;;;0.93;0.80;;;;;;;1.41;69.08;149022.13;10627915;27;20043;-75
2024/01/16 14:25:11;;;;;;;1.30;1.20;;;;;;;1.32;69.94;149000.34;10628190;27;20035;-75
2024/01/16 14:30:14;;;;;;;2.10;0.88;;;;;;;1.33;69.35;149001.59;10633145;27;20126;-74
2024/01/16 14:35:17;;;;;;;1.83;0.95;;;;;;;1.14;70.22;148955.47;10636662;27;20035;-74
2024/01/16 14:40:25;;;;;;;2.55;0.85;;;;;;;1.22;69.40;148976.00;10636055;27;20078;-74
2024/01/16 14:45:27;;;;;;;3.75;1.20;;;;;;;1.27;68.78;148987.53;10635035;27;20039;-74
2024/01/16 14:50:30;;;;;;;1.58;0.80;;;;;;;1.10;69.96;148943.94;10636880;27;20402;-74
2024/01/16 14:55:33;;;;;;;3.15;1.20;;;;;;;0.80;72.48;148868.34;10635144;27;20046;-74
2024/01/16 15:00:35;;;;;;;2.63;1.40;;;;;;;0.98;70.25;148914.50;10635381;27;20177;-74
2024/01/16 15:05:37;;;;;;;4.80;1.27;;;;;;;0.83;71.37;148876.06;10634710;27;20114;-75
2024/01/16 15:10:39;;;;;;;2.45;0.98;;;;;;;0.65;72.21;148831.22;10634028;27;20082;-74
2024/01/16 15:15:40;;;;;;;1.52;0.98;;;;;;;0.75;71.61;148856.81;10633615;27;20039;-75
2024/01/16 15:20:42;;;;;;;3.15;1.30;;;;;;;0.46;73.11;148783.84;10634654;27;20043;-75
2024/01/16 15:25:44;;;;;;;3.22;1.63;;;;;;;0.30;73.72;148742.84;10632493;27;20047;-75
2024/01/16 15:30:47;;;;;;;4.80;1.10;;;;;;;0.31;73.36;148746.72;10633980;27;20039;-74
2024/01/16 15:35:49;;;;;;;4.65;1.70;;;;;;;0.21;74.11;148721.06;10632444;27;20452;-75
2024/01/16 15:40:50;;;;;;;4.25;1.30;;;;;;;0.03;75.42;148676.28;10632681;27;20067;-75
2024/01/16 15:45:52;;;;;;;1.40;1.20;;;;;;;-0.01;75.24;148666.03;10631530;27;20046;-75
2024/01/16 15:50:54;;;;;;;5.57;1.58;;;;;;;-0.14;76.12;148632.75;10635420;27;20035;-74
2024/01/16 15:55:56;;;;;;;2.22;1.20;;;;;;;-0.21;77.50;148616.13;10634083;27;20063;-75
2024/01/16 16:00:59;;;;;;;2.63;1.52;;;;;;;-0.10;77.31;148644.25;10637506;27;20479;-74
2024/01/16 16:06:01;;;;;;;2.92;1.75;;;;;;;-0.17;77.75;148626.38;10634394;27;20088;-75
2024/01/16 16:11:03;;;;;;;2.58;1.77;;;;;;;-0.23;78.21;148610.97;10632167;27;20104;-75
2024/01/16 16:16:05;;;;;;;3.92;2.15;;;;;;;0.03;76.61;148675.00;10632600;27;20085;-75
2024/01/16 16:21:07;;;;;;;5.90;2.92;;;;;;;-0.15;77.43;148631.47;10632812;27;20491;-76
2024/01/16 16:26:09;;;;;;;4.18;2.70;;;;;;;-0.09;77.22;148645.53;10634655;27;20042;-76
2024/01/16 16:31:10;;;;;;;4.65;3.42;;;;;;;-0.14;77.79;148634.03;10632061;27;20097;-76
2024/01/16 16:36:12;;;;;;;6.60;4.60;;;;;;;-0.21;78.82;148616.13;10633042;27;20037;-76
2024/01/16 16:41:20;;;;;;;5.68;3.95;;;;;;;-0.09;79.18;148646.88;10633367;27;20066;-76
2024/01/16 16:46:23;;;;;;;2.45;2.25;;;;;;;-0.04;79.56;148659.66;10634997;27;20084;-76
2024/01/16 16:51:27;;;;;;;2.65;1.80;;;;;;;0.07;79.73;148686.50;10633625;27;20047;-76
2024/01/16 16:56:29;;;;;;;3.10;1.83;;;;;;;0.16;79.36;148708.28;10633924;27;20383;-74
2024/01/16 17:01:38;;;;;;;3.13;2.20;;;;;;;0.04;80.66;148677.53;10635430;27;20118;-76
2024/01/16 17:06:40;;;;;;;4.00;1.97;;;;;;;0.22;79.13;148723.63;10631640;27;20070;-76
2024/01/16 17:11:42;;;;;;;3.85;2.22;;;;;;;0.20;79.27;148719.81;10633448;27;20069;-77
2024/01/16 17:16:44;;;;;;;2.80;2.20;;;;;;;0.36;77.25;148759.53;10629719;27;20050;-75
2024/01/16 17:21:46;;;;;;;3.10;2.38;;;;;;;0.28;77.72;148737.75;10630601;27;20055;-75
2024/01/16 17:26:48;;;;;;;2.38;2.03;;;;;;;0.03;78.81;148676.28;10631662;27;20042;-75
2024/01/16 17:31:50;;;;;;;3.20;2.00;;;;;;;0.16;77.37;148709.56;10628714;27;20046;-75
2024/01/16 17:36:52;;;;;;;4.30;2.60;;;;;;;-0.03;77.54;148662.19;10629761;28;20051;-75
2024/01/16 17:41:53;;;;;;;6.65;3.00;;;;;;;-0.04;78.16;148659.66;10631546;27;20372;-76
2024/01/16 17:46:56;;;;;;;5.15;2.72;;;;;;;-0.04;77.92;148658.38;10630386;28;20507;-75
2024/01/16 17:51:57;;;;;;;3.90;2.20;;;;;;;-0.04;77.61;148658.38;10633040;27;20043;-75
2024/01/16 17:57:00;;;;;;;3.28;2.75;;;;;;;-0.01;76.92;148667.28;10632838;28;20452;-75
2024/01/16 18:02:01;;;;;;;2.83;1.92;;;;;;;-0.22;78.42;148612.25;10615302;27;20046;-75
2024/01/16 18:07:04;;;;;;;6.93;5.28;;;;;;;-0.34;78.93;148582.84;10639254;27;20066;-76
2024/01/16 18:12:06;;;;;;;3.97;2.58;;;;;;;-0.38;78.67;148572.59;10637455;27;20088;-76
2024/01/16 18:17:11;;;;;;;4.75;2.20;;;;;;;-0.47;78.90;148549.59;10638009;27;20047;-77
2024/01/16 18:22:13;;;;;;;3.05;1.95;;;;;;;-0.40;77.56;148568.78;10637949;27;20065;-75
2024/01/16 18:27:16;;;;;;;4.15;2.60;;;;;;;-0.38;78.02;148572.59;10636172;27;20062;-74
2024/01/16 18:32:18;;;;;;;2.88;2.30;;;;;;;-0.45;77.46;148555.94;10638055;27;20039;-75
2024/01/16 18:37:20;;;;;;;3.78;2.67;;;;;;;-0.44;77.03;148557.22;10638089;27;20134;-75
2024/01/16 18:42:22;;;;;;;4.60;2.13;;;;;;;-0.27;76.01;148600.75;10639041;27;20043;-75
2024/01/16 18:47:24;;;;;;;2.55;2.00;;;;;;;-0.29;76.18;148596.91;10638577;27;20399;-75
2024/01/16 18:52:26;;;;;;;2.55;2.35;;;;;;;-0.48;77.39;148547.03;10641722;27;20043;-74
2024/01/16 18:57:28;;;;;;;2.30;2.10;;;;;;;-0.45;77.38;148554.69;10636500;27;20051;-74
2024/01/16 19:02:30;;;;;;;3.72;2.45;;;;;;;-0.73;79.12;148485.59;10636437;27;20093;-75
2024/01/16 19:07:33;;;;;;;3.95;2.55;;;;;;;-0.68;78.50;148497.09;10636470;27;20051;-74
2024/01/16 19:12:35;;;;;;;6.00;3.00;;;;;;;-0.79;78.90;148470.25;10637354;27;20042;-74
2024/01/16 19:17:38;;;;;;;2.92;2.20;;;;;;;-0.90;79.72;148442.09;10635606;27;20043;-75
2024/01/16 19:22:41;;;;;;;4.28;2.58;;;;;;;-0.98;80.44;148422.88;10641304;27;20107;-76
2024/01/16 19:27:47;;;;;;;4.45;2.35;;;;;;;-0.97;80.41;148425.50;10642004;27;20042;-75
2024/01/16 19:32:50;;;;;;;2.67;2.42;;;;;;;-1.07;80.77;148399.88;10639380;27;20491;-76
2024/01/16 19:37:52;;;;;;;3.38;2.33;;;;;;;-1.10;80.01;148393.50;10637312;27;20125;-77
2024/01/16 19:42:54;;;;;;;5.00;2.30;;;;;;;-1.29;80.88;148344.88;10639679;27;20067;-76
2024/01/16 19:47:56;;;;;;;4.47;2.58;;;;;;;-1.42;81.43;148311.63;10620874;27;20047;-75
2024/01/16 19:52:59;;;;;;;2.70;1.70;;;;;;;-1.50;81.62;148291.22;10634420;27;20043;-74
2024/01/16 19:58:02;;;;;;;2.72;1.85;;;;;;;-1.40;80.16;148316.78;10635709;27;20039;-75
2024/01/16 20:03:06;;;;;;;2.53;1.70;;;;;;;-1.62;80.88;148261.81;10634752;27;20126;-74
2024/01/16 20:08:12;;;;;;;2.70;2.10;;;;;;;-1.61;80.60;148264.34;10636641;27;20039;-74
2024/01/16 20:13:14;;;;;;;4.85;1.80;;;;;;;-1.52;79.33;148287.34;10635762;27;20088;-73
2024/01/16 20:18:16;;;;;;;2.47;1.92;;;;;;;-1.60;79.08;148268.16;10634967;27;20491;-75
2024/01/16 20:23:19;;;;;;;1.98;1.77;;;;;;;-1.75;79.14;148228.56;10635184;27;20150;-74
2024/01/16 20:28:21;;;;;;;3.45;2.10;;;;;;;-1.78;79.47;148222.16;10631876;27;20043;-74
2024/01/16 20:33:23;;;;;;;2.40;1.83;;;;;;;-1.89;79.44;148195.34;10633378;27;20050;-74
2024/01/16 20:38:26;;;;;;;2.60;1.60;;;;;;;-1.83;78.76;148209.38;10632091;27;20088;-74
2024/01/16 20:43:29;;;;;;;1.65;1.55;;;;;;;-2.01;79.20;148164.66;10630043;27;20073;-74
2024/01/16 20:48:32;;;;;;;2.78;1.60;;;;;;;-1.90;78.19;148191.50;10630515;27;20043;-75
2024/01/16 20:53:34;;;;;;;1.20;1.10;;;;;;;-1.93;77.69;148185.09;10631174;27;20465;-75
2024/01/16 20:58:38;;;;;;;3.60;1.58;;;;;;;-2.13;78.91;148135.25;10632788;27;20047;-75
2024/01/16 21:03:40;;;;;;;3.47;1.70;;;;;;;-2.18;78.92;148122.47;10630567;27;20081;-74
2024/01/16 21:08:41;;;;;;;2.20;1.75;;;;;;;-2.26;79.72;148100.75;10629041;27;20087;-75
2024/01/16 21:13:43;;;;;;;4.03;2.00;;;;;;;-2.14;78.12;148131.41;10630417;27;20487;-75
2024/01/16 21:18:45;;;;;;;4.80;3.55;;;;;;;-2.19;78.15;148118.66;10630980;27;20039;-75
2024/01/16 21:23:47;;;;;;;3.90;2.10;;;;;;;-2.30;78.49;148091.84;10630997;27;20039;-75
2024/01/16 21:28:49;;;;;;;2.70;1.98;;;;;;;-2.27;78.09;148099.47;10629202;27;20043;-74
2024/01/16 21:33:51;;;;;;;3.13;1.75;;;;;;;-2.36;78.15;148076.47;10629691;27;20075;-75
2024/01/16 21:38:53;;;;;;;1.92;1.52;;;;;;;-2.40;78.16;148066.25;10630193;27;20112;-75
2024/01/16 21:43:56;;;;;;;3.97;2.03;;;;;;;-2.64;78.68;148007.50;10629973;27;20431;-76
2024/01/16 21:48:58;;;;;;;2.38;1.80;;;;;;;-2.74;79.32;147981.97;10628970;28;20062;-76
2024/01/16 21:54:01;;;;;;;2.25;1.80;;;;;;;-2.65;78.78;148004.97;10629556;28;20071;-74
2024/01/16 21:59:04;;;;;;;1.63;1.20;;;;;;;-2.58;77.78;148021.56;10630755;28;20467;-76
2024/01/16 22:04:07;;;;;;;2.20;1.48;;;;;;;-2.58;77.32;148022.81;10629054;27;20046;-75
2024/01/16 22:09:14;;;;;;;1.52;1.42;;;;;;;-2.63;77.20;148010.06;10628998;27;20039;-76
2024/01/16 22:14:16;;;;;;;2.72;1.38;;;;;;;-2.57;76.59;148024.09;10628687;27;20099;-77
2024/01/16 22:19:22;;;;;;;2.33;1.50;;;;;;;-2.70;77.32;147990.88;10626980;28;20134;-75
2024/01/16 22:24:24;;;;;;;2.38;1.35;;;;;;;-2.68;77.01;147997.28;10628414;27;20035;-76
2024/01/16 22:29:25;;;;;;;1.80;1.65;;;;;;;-2.65;76.44;148003.69;10626750;28;20047;-76
2024/01/16 22:34:27;;;;;;;1.77;1.48;;;;;;;-2.60;76.14;148016.47;10628824;27;20069;-76
2024/01/16 22:39:29;;;;;;;2.38;1.80;;;;;;;-2.77;76.31;147973.03;10628548;27;20039;-75
2024/01/16 22:44:31;;;;;;;1.80;1.20;;;;;;;-2.90;77.08;147941.09;10630227;27;20050;-76
2024/01/16 22:49:35;;;;;;;4.78;1.63;;;;;;;-3.08;77.66;147896.41;10631914;27;20079;-76
2024/01/16 22:54:37;;;;;;;2.78;1.35;;;;;;;-2.90;76.85;147942.38;10637214;27;20518;-75
2024/01/16 22:59:39;;;;;;;2.28;1.40;;;;;;;-3.01;77.78;147913.00;10637042;27;20092;-76
2024/01/16 23:04:41;;;;;;;1.52;1.40;;;;;;;-3.12;77.38;147886.19;10634623;27;20042;-76
2024/01/16 23:09:43;;;;;;;3.33;1.65;;;;;;;-3.10;77.58;147891.28;10637181;27;20096;-76
2024/01/16 23:14:45;;;;;;;1.52;1.42;;;;;;;-3.13;77.15;147883.66;10636323;27;20043;-76